ฉงชิ่ง, China

07:35 PM CST วัน ธันวาคม 03, 2016 (GMT +0800)
Jiangbei | | Change Station

Elev 1152 ft 29.52 °N, 106.48 °E | Updated 35 minutes ago

Mist
หมอก
50 ฟาเรนไฮน์
Feels Like 50 ฟาเรนไฮน์
N
4
ลม ความผันแปร ลม from ทางทิศตะวันตก

วันนี้
High -- | Low -- ฟาเรนไฮน์
--% Chance of Precip.
Yesterday
High -- | Low -- ฟาเรนไฮน์
Precip. -- นิ้ว
ความดัน 30.33 นิ้ว
ทัศนวิสัย 2.5 ไมล์
เมฆ
อุณหภูมิที่อากาศอาจจับตัวเป็นหยาดน้ำค้าง 45 ฟาเรนไฮน์
ความชื้น 82%
Rainfall 0.00 นิ้ว
Snow Depth Not available.
7:35 AM 5:55 PM
เดือนเสี้ยว, 14% visible
METAR ZUCK 031100Z 28002MPS 4000 BR NSC 10/07 Q1027 NOSIG
ความดัน 30.33 นิ้ว
ทัศนวิสัย 2.5 ไมล์
เมฆ
อุณหภูมิที่อากาศอาจจับตัวเป็นหยาดน้ำค้าง 45 ฟาเรนไฮน์
ความชื้น 82%
Rainfall 0.00 นิ้ว
Snow Depth Not available.
7:35 AM 5:55 PM
เดือนเสี้ยว, 14% visible
METAR ZUCK 031100Z 28002MPS 4000 BR NSC 10/07 Q1027 NOSIG

10-Day Weather Forecast

No radar image for this location.
×

Almanac

ดาราศาสตร์

Dec. 03, 2016 Rise Set
Actual Time
Civil Twilight
Nautical Twilight
Astronomical Twilight
Moon
Length Of Visible Light
ความยาวของวัน
Tomorrow will be .
, % of the Moon is Illuminated

Today's Extremes

Country Highs Country Lows

Community

WunderPhotos

Upload Photos

1,955,431 photos uploaded!

WunderBlog® & News

Nearby

Air Quality

  Air Quality AQ Index Pollutant
Not available.

Snow Depth

Station Depth Elevation

Earthquake Activity

City Distance Mag. Time & Date
Minimum magnitude displayed is 2.5.

Coastal Water Temperatures

สถานที่ อุณหภูมิ

Stations

Nearby Weather Stations

Station Location Temp ลมหนาว อุณหภูมิที่อากาศอาจจับตัวเป็นหยาดน้ำค้าง ความชื้น ลม Precip. Elev ปรับปรุงล่าสุด Type